sensor_id;sensor_type;location;lat;lon;timestamp;temperature;humidity
2571;DHT22;1295;51.130;6.732;2023-07-24T00:02:24;21.30;99.90
2571;DHT22;1295;51.130;6.732;2023-07-24T00:04:51;21.20;99.90
2571;DHT22;1295;51.130;6.732;2023-07-24T00:07:16;21.20;99.90
2571;DHT22;1295;51.130;6.732;2023-07-24T00:09:42;21.20;99.90
2571;DHT22;1295;51.130;6.732;2023-07-24T00:12:08;21.20;99.90
2571;DHT22;1295;51.130;6.732;2023-07-24T00:14:34;21.20;99.90
2571;DHT22;1295;51.130;6.732;2023-07-24T00:17:00;21.20;99.90
2571;DHT22;1295;51.130;6.732;2023-07-24T00:19:26;21.20;99.90
2571;DHT22;1295;51.130;6.732;2023-07-24T00:21:51;21.20;99.90
2571;DHT22;1295;51.130;6.732;2023-07-24T00:24:17;21.20;99.90
2571;DHT22;1295;51.130;6.732;2023-07-24T00:26:43;21.20;99.90
2571;DHT22;1295;51.130;6.732;2023-07-24T00:29:08;21.20;99.90
2571;DHT22;1295;51.130;6.732;2023-07-24T00:31:35;21.20;99.90
2571;DHT22;1295;51.130;6.732;2023-07-24T00:34:01;21.20;99.90
2571;DHT22;1295;51.130;6.732;2023-07-24T00:36:27;21.10;99.90
2571;DHT22;1295;51.130;6.732;2023-07-24T00:38:52;21.20;99.90
2571;DHT22;1295;51.130;6.732;2023-07-24T00:41:18;21.20;99.90
2571;DHT22;1295;51.130;6.732;2023-07-24T00:43:44;21.10;99.90
2571;DHT22;1295;51.130;6.732;2023-07-24T00:46:10;21.10;99.90
2571;DHT22;1295;51.130;6.732;2023-07-24T00:48:35;21.10;99.90
2571;DHT22;1295;51.130;6.732;2023-07-24T00:51:00;21.10;99.90
2571;DHT22;1295;51.130;6.732;2023-07-24T00:53:26;21.10;99.90
2571;DHT22;1295;51.130;6.732;2023-07-24T00:55:52;21.10;99.90
2571;DHT22;1295;51.130;6.732;2023-07-24T00:58:17;21.10;99.90
2571;DHT22;1295;51.130;6.732;2023-07-24T01:00:43;21.10;99.90
2571;DHT22;1295;51.130;6.732;2023-07-24T01:03:08;21.10;99.90
2571;DHT22;1295;51.130;6.732;2023-07-24T01:05:34;21.10;99.90
2571;DHT22;1295;51.130;6.732;2023-07-24T01:08:00;21.10;99.90
2571;DHT22;1295;51.130;6.732;2023-07-24T01:10:25;21.10;99.90
2571;DHT22;1295;51.130;6.732;2023-07-24T01:12:54;21.10;99.90
2571;DHT22;1295;51.130;6.732;2023-07-24T01:15:24;21.00;99.90
2571;DHT22;1295;51.130;6.732;2023-07-24T01:17:49;21.00;99.90
2571;DHT22;1295;51.130;6.732;2023-07-24T01:20:13;21.00;99.90
2571;DHT22;1295;51.130;6.732;2023-07-24T01:22:39;21.10;99.90
2571;DHT22;1295;51.130;6.732;2023-07-24T01:25:31;21.00;99.90
2571;DHT22;1295;51.130;6.732;2023-07-24T01:27:57;21.00;99.90
2571;DHT22;1295;51.130;6.732;2023-07-24T01:30:23;21.00;99.90
2571;DHT22;1295;51.130;6.732;2023-07-24T01:32:48;21.10;99.90
2571;DHT22;1295;51.130;6.732;2023-07-24T01:35:14;21.00;99.90
2571;DHT22;1295;51.130;6.732;2023-07-24T01:37:39;21.00;99.90
2571;DHT22;1295;51.130;6.732;2023-07-24T01:40:08;21.00;99.90
2571;DHT22;1295;51.130;6.732;2023-07-24T01:42:33;21.00;99.90
2571;DHT22;1295;51.130;6.732;2023-07-24T01:44:59;21.00;99.90
2571;DHT22;1295;51.130;6.732;2023-07-24T01:47:25;21.00;99.90
2571;DHT22;1295;51.130;6.732;2023-07-24T01:49:50;21.00;99.90
2571;DHT22;1295;51.130;6.732;2023-07-24T01:52:16;21.00;99.90
2571;DHT22;1295;51.130;6.732;2023-07-24T01:54:41;21.00;99.90
2571;DHT22;1295;51.130;6.732;2023-07-24T01:57:07;21.00;99.90
2571;DHT22;1295;51.130;6.732;2023-07-24T01:59:33;21.00;99.90
2571;DHT22;1295;51.130;6.732;2023-07-24T02:01:59;20.60;99.90
2571;DHT22;1295;51.130;6.732;2023-07-24T02:04:24;20.50;99.90
2571;DHT22;1295;51.130;6.732;2023-07-24T02:06:50;20.80;99.90
2571;DHT22;1295;51.130;6.732;2023-07-24T02:09:18;20.90;99.90
2571;DHT22;1295;51.130;6.732;2023-07-24T02:11:44;20.90;99.90
2571;DHT22;1295;51.130;6.732;2023-07-24T02:14:11;20.80;99.90
2571;DHT22;1295;51.130;6.732;2023-07-24T02:16:36;20.90;99.90
2571;DHT22;1295;51.130;6.732;2023-07-24T02:19:01;20.80;99.90
2571;DHT22;1295;51.130;6.732;2023-07-24T02:21:27;20.90;99.90
2571;DHT22;1295;51.130;6.732;2023-07-24T02:23:52;20.90;99.90
2571;DHT22;1295;51.130;6.732;2023-07-24T02:26:18;20.80;99.90
2571;DHT22;1295;51.130;6.732;2023-07-24T02:28:44;20.60;99.90
2571;DHT22;1295;51.130;6.732;2023-07-24T02:31:09;20.60;99.90
2571;DHT22;1295;51.130;6.732;2023-07-24T02:33:35;20.80;99.90
2571;DHT22;1295;51.130;6.732;2023-07-24T02:36:01;20.90;99.90
2571;DHT22;1295;51.130;6.732;2023-07-24T02:38:26;20.90;99.90
2571;DHT22;1295;51.130;6.732;2023-07-24T02:40:52;20.80;99.90
2571;DHT22;1295;51.130;6.732;2023-07-24T02:43:24;20.30;99.90
2571;DHT22;1295;51.130;6.732;2023-07-24T02:45:50;20.10;99.90
2571;DHT22;1295;51.130;6.732;2023-07-24T02:48:16;20.60;99.90
2571;DHT22;1295;51.130;6.732;2023-07-24T02:50:42;20.60;99.90
2571;DHT22;1295;51.130;6.732;2023-07-24T02:53:08;20.40;99.90
2571;DHT22;1295;51.130;6.732;2023-07-24T02:55:33;20.10;99.90
2571;DHT22;1295;51.130;6.732;2023-07-24T02:57:59;20.40;99.90
2571;DHT22;1295;51.130;6.732;2023-07-24T03:00:25;20.60;99.90
2571;DHT22;1295;51.130;6.732;2023-07-24T03:02:52;20.60;99.90
2571;DHT22;1295;51.130;6.732;2023-07-24T03:05:16;20.70;99.90
2571;DHT22;1295;51.130;6.732;2023-07-24T03:07:42;20.80;99.90
2571;DHT22;1295;51.130;6.732;2023-07-24T03:10:08;20.60;99.90
2571;DHT22;1295;51.130;6.732;2023-07-24T03:12:34;20.70;99.90
2571;DHT22;1295;51.130;6.732;2023-07-24T03:15:00;20.80;99.90
2571;DHT22;1295;51.130;6.732;2023-07-24T03:17:25;20.80;99.90
2571;DHT22;1295;51.130;6.732;2023-07-24T03:19:51;20.80;99.90
2571;DHT22;1295;51.130;6.732;2023-07-24T03:22:17;20.80;99.90
2571;DHT22;1295;51.130;6.732;2023-07-24T03:24:42;20.80;99.90
2571;DHT22;1295;51.130;6.732;2023-07-24T03:27:08;20.80;99.90
2571;DHT22;1295;51.130;6.732;2023-07-24T03:29:34;20.60;99.90
2571;DHT22;1295;51.130;6.732;2023-07-24T03:31:59;20.60;99.90
2571;DHT22;1295;51.130;6.732;2023-07-24T03:34:25;20.70;99.90
2571;DHT22;1295;51.130;6.732;2023-07-24T03:36:50;20.60;99.90
2571;DHT22;1295;51.130;6.732;2023-07-24T03:39:16;19.80;99.90
2571;DHT22;1295;51.130;6.732;2023-07-24T03:41:42;20.00;99.90
2571;DHT22;1295;51.130;6.732;2023-07-24T03:44:08;19.50;99.90
2571;DHT22;1295;51.130;6.732;2023-07-24T03:46:34;19.50;99.90
2571;DHT22;1295;51.130;6.732;2023-07-24T03:49:00;19.20;99.90
2571;DHT22;1295;51.130;6.732;2023-07-24T03:51:26;19.20;99.90
2571;DHT22;1295;51.130;6.732;2023-07-24T03:53:52;19.40;99.90
2571;DHT22;1295;51.130;6.732;2023-07-24T03:56:17;19.30;99.90
2571;DHT22;1295;51.130;6.732;2023-07-24T03:58:43;19.80;99.90
2571;DHT22;1295;51.130;6.732;2023-07-24T04:01:09;20.00;99.90
2571;DHT22;1295;51.130;6.732;2023-07-24T04:03:35;19.80;99.90
2571;DHT22;1295;51.130;6.732;2023-07-24T04:06:00;19.40;99.90
2571;DHT22;1295;51.130;6.732;2023-07-24T04:08:26;19.30;99.90
2571;DHT22;1295;51.130;6.732;2023-07-24T04:10:51;19.20;99.90
2571;DHT22;1295;51.130;6.732;2023-07-24T04:13:17;19.20;99.90
2571;DHT22;1295;51.130;6.732;2023-07-24T04:15:42;19.30;99.90
2571;DHT22;1295;51.130;6.732;2023-07-24T04:18:08;19.20;99.90
2571;DHT22;1295;51.130;6.732;2023-07-24T04:20:34;19.60;99.90
2571;DHT22;1295;51.130;6.732;2023-07-24T04:22:59;19.10;99.90
2571;DHT22;1295;51.130;6.732;2023-07-24T04:25:25;19.10;99.90
2571;DHT22;1295;51.130;6.732;2023-07-24T04:27:50;18.80;99.90
2571;DHT22;1295;51.130;6.732;2023-07-24T04:30:16;18.70;99.90
2571;DHT22;1295;51.130;6.732;2023-07-24T04:32:42;18.80;99.90
2571;DHT22;1295;51.130;6.732;2023-07-24T04:35:08;18.90;99.90
2571;DHT22;1295;51.130;6.732;2023-07-24T04:37:34;19.30;99.90
2571;DHT22;1295;51.130;6.732;2023-07-24T04:40:00;19.40;99.90
2571;DHT22;1295;51.130;6.732;2023-07-24T04:42:26;19.40;99.90
2571;DHT22;1295;51.130;6.732;2023-07-24T04:44:52;19.80;99.90
2571;DHT22;1295;51.130;6.732;2023-07-24T04:47:18;19.80;99.90
2571;DHT22;1295;51.130;6.732;2023-07-24T04:49:43;19.90;99.90
2571;DHT22;1295;51.130;6.732;2023-07-24T04:52:09;19.40;99.90
2571;DHT22;1295;51.130;6.732;2023-07-24T04:54:35;19.20;99.90
2571;DHT22;1295;51.130;6.732;2023-07-24T04:57:02;19.20;99.90
2571;DHT22;1295;51.130;6.732;2023-07-24T04:59:28;19.10;99.90
2571;DHT22;1295;51.130;6.732;2023-07-24T05:01:53;19.10;99.90
2571;DHT22;1295;51.130;6.732;2023-07-24T05:04:20;19.00;99.90
2571;DHT22;1295;51.130;6.732;2023-07-24T05:06:45;18.90;99.90
2571;DHT22;1295;51.130;6.732;2023-07-24T05:09:11;19.00;99.90
2571;DHT22;1295;51.130;6.732;2023-07-24T05:11:37;19.60;99.90
2571;DHT22;1295;51.130;6.732;2023-07-24T05:14:03;19.60;99.90
2571;DHT22;1295;51.130;6.732;2023-07-24T05:16:28;19.70;99.90
2571;DHT22;1295;51.130;6.732;2023-07-24T05:18:54;19.30;99.90
2571;DHT22;1295;51.130;6.732;2023-07-24T05:21:20;18.90;99.90
2571;DHT22;1295;51.130;6.732;2023-07-24T05:23:45;18.80;99.90
2571;DHT22;1295;51.130;6.732;2023-07-24T05:26:11;18.70;99.90
2571;DHT22;1295;51.130;6.732;2023-07-24T05:28:37;18.80;99.90
2571;DHT22;1295;51.130;6.732;2023-07-24T05:31:02;18.70;99.90
2571;DHT22;1295;51.130;6.732;2023-07-24T05:33:28;18.70;99.90
2571;DHT22;1295;51.130;6.732;2023-07-24T05:35:58;18.70;99.90
2571;DHT22;1295;51.130;6.732;2023-07-24T05:38:23;18.80;99.90
2571;DHT22;1295;51.130;6.732;2023-07-24T05:40:53;18.90;99.90
2571;DHT22;1295;51.130;6.732;2023-07-24T05:43:14;19.10;99.90
2571;DHT22;1295;51.130;6.732;2023-07-24T05:45:40;19.20;99.90
2571;DHT22;1295;51.130;6.732;2023-07-24T05:48:05;19.10;99.90
2571;DHT22;1295;51.130;6.732;2023-07-24T05:50:31;19.20;99.90
2571;DHT22;1295;51.130;6.732;2023-07-24T05:52:57;19.20;99.90
2571;DHT22;1295;51.130;6.732;2023-07-24T05:55:22;19.40;99.90
2571;DHT22;1295;51.130;6.732;2023-07-24T05:57:48;19.40;99.90
2571;DHT22;1295;51.130;6.732;2023-07-24T06:00:14;19.40;99.90
2571;DHT22;1295;51.130;6.732;2023-07-24T06:02:40;19.50;99.90
2571;DHT22;1295;51.130;6.732;2023-07-24T06:05:06;19.60;99.90
2571;DHT22;1295;51.130;6.732;2023-07-24T06:07:32;19.60;99.90
2571;DHT22;1295;51.130;6.732;2023-07-24T06:10:03;19.60;99.90
2571;DHT22;1295;51.130;6.732;2023-07-24T06:12:41;19.50;99.90
2571;DHT22;1295;51.130;6.732;2023-07-24T06:15:07;19.70;99.90
2571;DHT22;1295;51.130;6.732;2023-07-24T06:17:33;19.50;99.90
2571;DHT22;1295;51.130;6.732;2023-07-24T06:19:58;19.60;99.90
2571;DHT22;1295;51.130;6.732;2023-07-24T06:22:35;19.70;99.90
2571;DHT22;1295;51.130;6.732;2023-07-24T06:25:00;19.70;99.90
2571;DHT22;1295;51.130;6.732;2023-07-24T06:27:26;19.70;99.90
2571;DHT22;1295;51.130;6.732;2023-07-24T06:29:51;19.80;99.90
2571;DHT22;1295;51.130;6.732;2023-07-24T06:32:17;19.70;99.90
2571;DHT22;1295;51.130;6.732;2023-07-24T06:34:43;19.80;99.90
2571;DHT22;1295;51.130;6.732;2023-07-24T06:37:08;19.80;99.90
2571;DHT22;1295;51.130;6.732;2023-07-24T06:39:34;19.90;99.90
2571;DHT22;1295;51.130;6.732;2023-07-24T06:42:00;19.80;99.90
2571;DHT22;1295;51.130;6.732;2023-07-24T06:44:26;19.90;99.90
2571;DHT22;1295;51.130;6.732;2023-07-24T06:46:52;19.80;99.90
2571;DHT22;1295;51.130;6.732;2023-07-24T06:49:17;19.80;99.90
2571;DHT22;1295;51.130;6.732;2023-07-24T06:51:43;19.80;99.90
2571;DHT22;1295;51.130;6.732;2023-07-24T06:54:09;19.90;99.90
2571;DHT22;1295;51.130;6.732;2023-07-24T06:56:34;19.90;99.90
2571;DHT22;1295;51.130;6.732;2023-07-24T06:59:00;19.90;99.90
2571;DHT22;1295;51.130;6.732;2023-07-24T07:01:26;19.90;99.90
2571;DHT22;1295;51.130;6.732;2023-07-24T07:03:52;20.00;99.90
2571;DHT22;1295;51.130;6.732;2023-07-24T07:06:17;20.00;99.90
2571;DHT22;1295;51.130;6.732;2023-07-24T07:08:43;19.90;99.90
2571;DHT22;1295;51.130;6.732;2023-07-24T07:11:09;20.00;99.90
2571;DHT22;1295;51.130;6.732;2023-07-24T07:13:35;20.00;99.90
2571;DHT22;1295;51.130;6.732;2023-07-24T07:16:01;20.00;99.90
2571;DHT22;1295;51.130;6.732;2023-07-24T07:18:26;19.90;99.90
2571;DHT22;1295;51.130;6.732;2023-07-24T07:20:53;19.90;99.90
2571;DHT22;1295;51.130;6.732;2023-07-24T07:23:18;19.90;99.90
2571;DHT22;1295;51.130;6.732;2023-07-24T07:25:43;19.90;99.90
2571;DHT22;1295;51.130;6.732;2023-07-24T07:28:09;19.90;99.90
2571;DHT22;1295;51.130;6.732;2023-07-24T07:30:34;19.90;99.90
2571;DHT22;1295;51.130;6.732;2023-07-24T07:33:00;19.90;99.90
2571;DHT22;1295;51.130;6.732;2023-07-24T07:35:26;20.00;99.90
2571;DHT22;1295;51.130;6.732;2023-07-24T07:37:52;20.10;99.90
2571;DHT22;1295;51.130;6.732;2023-07-24T07:40:17;20.00;99.90
2571;DHT22;1295;51.130;6.732;2023-07-24T07:42:43;20.10;99.90
2571;DHT22;1295;51.130;6.732;2023-07-24T07:45:09;20.20;99.90
2571;DHT22;1295;51.130;6.732;2023-07-24T07:47:35;20.30;99.90
2571;DHT22;1295;51.130;6.732;2023-07-24T07:50:00;20.20;99.90
2571;DHT22;1295;51.130;6.732;2023-07-24T07:52:26;20.30;99.90
2571;DHT22;1295;51.130;6.732;2023-07-24T07:54:51;20.20;99.90
2571;DHT22;1295;51.130;6.732;2023-07-24T07:57:17;20.20;99.90
2571;DHT22;1295;51.130;6.732;2023-07-24T07:59:43;20.20;99.90
2571;DHT22;1295;51.130;6.732;2023-07-24T08:02:08;20.10;99.90
2571;DHT22;1295;51.130;6.732;2023-07-24T08:04:34;20.30;99.90
2571;DHT22;1295;51.130;6.732;2023-07-24T08:06:59;20.20;99.90
2571;DHT22;1295;51.130;6.732;2023-07-24T08:09:25;20.30;99.90
2571;DHT22;1295;51.130;6.732;2023-07-24T08:11:52;20.40;99.90
2571;DHT22;1295;51.130;6.732;2023-07-24T08:14:17;20.40;99.90
2571;DHT22;1295;51.130;6.732;2023-07-24T08:16:43;20.40;99.90
2571;DHT22;1295;51.130;6.732;2023-07-24T08:19:08;20.40;99.90
2571;DHT22;1295;51.130;6.732;2023-07-24T08:21:34;20.40;99.90
2571;DHT22;1295;51.130;6.732;2023-07-24T08:24:00;20.40;99.90
2571;DHT22;1295;51.130;6.732;2023-07-24T08:26:25;20.50;99.90
2571;DHT22;1295;51.130;6.732;2023-07-24T08:28:51;20.60;99.90
2571;DHT22;1295;51.130;6.732;2023-07-24T08:31:17;20.80;99.90
2571;DHT22;1295;51.130;6.732;2023-07-24T08:33:43;20.80;99.90
2571;DHT22;1295;51.130;6.732;2023-07-24T08:36:09;20.80;99.90
2571;DHT22;1295;51.130;6.732;2023-07-24T08:38:34;20.70;99.90
2571;DHT22;1295;51.130;6.732;2023-07-24T08:41:03;20.70;99.90
2571;DHT22;1295;51.130;6.732;2023-07-24T08:43:29;20.60;99.90
2571;DHT22;1295;51.130;6.732;2023-07-24T08:45:54;20.60;99.90
2571;DHT22;1295;51.130;6.732;2023-07-24T08:48:20;20.40;99.90
2571;DHT22;1295;51.130;6.732;2023-07-24T08:50:46;20.50;99.90
2571;DHT22;1295;51.130;6.732;2023-07-24T08:53:12;20.50;99.90
2571;DHT22;1295;51.130;6.732;2023-07-24T08:55:37;20.40;99.90
2571;DHT22;1295;51.130;6.732;2023-07-24T08:58:03;20.50;99.90
2571;DHT22;1295;51.130;6.732;2023-07-24T09:00:28;20.50;99.90
2571;DHT22;1295;51.130;6.732;2023-07-24T09:02:54;20.40;99.90
2571;DHT22;1295;51.130;6.732;2023-07-24T09:05:20;20.50;99.90
2571;DHT22;1295;51.130;6.732;2023-07-24T09:07:46;20.50;99.90
2571;DHT22;1295;51.130;6.732;2023-07-24T09:10:12;20.50;99.90
2571;DHT22;1295;51.130;6.732;2023-07-24T09:12:38;20.40;99.90
2571;DHT22;1295;51.130;6.732;2023-07-24T09:15:05;20.40;99.90
2571;DHT22;1295;51.130;6.732;2023-07-24T09:17:31;20.40;99.90
2571;DHT22;1295;51.130;6.732;2023-07-24T09:19:57;20.30;99.90
2571;DHT22;1295;51.130;6.732;2023-07-24T09:22:23;20.40;99.90
2571;DHT22;1295;51.130;6.732;2023-07-24T09:24:54;20.40;99.90
2571;DHT22;1295;51.130;6.732;2023-07-24T09:27:19;20.30;99.90
2571;DHT22;1295;51.130;6.732;2023-07-24T09:29:45;20.40;99.90
2571;DHT22;1295;51.130;6.732;2023-07-24T09:32:20;20.30;99.90
2571;DHT22;1295;51.130;6.732;2023-07-24T09:34:45;20.30;99.90
2571;DHT22;1295;51.130;6.732;2023-07-24T09:37:11;20.30;99.90
2571;DHT22;1295;51.130;6.732;2023-07-24T09:39:37;20.40;99.90
2571;DHT22;1295;51.130;6.732;2023-07-24T09:42:03;20.50;99.90
2571;DHT22;1295;51.130;6.732;2023-07-24T09:44:30;20.60;99.90
2571;DHT22;1295;51.130;6.732;2023-07-24T09:46:55;20.60;99.90
2571;DHT22;1295;51.130;6.732;2023-07-24T09:49:20;20.70;99.90
2571;DHT22;1295;51.130;6.732;2023-07-24T09:51:46;20.70;99.90
2571;DHT22;1295;51.130;6.732;2023-07-24T09:54:17;20.70;99.90
2571;DHT22;1295;51.130;6.732;2023-07-24T09:56:41;20.80;99.90
2571;DHT22;1295;51.130;6.732;2023-07-24T09:59:07;20.90;99.90
2571;DHT22;1295;51.130;6.732;2023-07-24T10:01:32;20.90;99.90
2571;DHT22;1295;51.130;6.732;2023-07-24T10:03:59;21.00;99.90
2571;DHT22;1295;51.130;6.732;2023-07-24T10:06:24;21.00;99.90
2571;DHT22;1295;51.130;6.732;2023-07-24T10:08:50;20.90;99.90
2571;DHT22;1295;51.130;6.732;2023-07-24T10:11:16;21.00;99.90
2571;DHT22;1295;51.130;6.732;2023-07-24T10:13:42;21.10;99.90
2571;DHT22;1295;51.130;6.732;2023-07-24T10:16:07;21.10;99.90
2571;DHT22;1295;51.130;6.732;2023-07-24T10:18:34;21.10;99.90
2571;DHT22;1295;51.130;6.732;2023-07-24T10:21:08;21.10;99.90
2571;DHT22;1295;51.130;6.732;2023-07-24T10:23:42;21.10;99.90
2571;DHT22;1295;51.130;6.732;2023-07-24T10:26:07;21.20;99.90
2571;DHT22;1295;51.130;6.732;2023-07-24T10:28:35;21.20;99.90
2571;DHT22;1295;51.130;6.732;2023-07-24T10:31:00;21.30;99.90
2571;DHT22;1295;51.130;6.732;2023-07-24T10:33:29;21.30;99.90
2571;DHT22;1295;51.130;6.732;2023-07-24T10:35:53;21.30;99.90
2571;DHT22;1295;51.130;6.732;2023-07-24T10:38:17;21.20;99.90
2571;DHT22;1295;51.130;6.732;2023-07-24T10:40:47;21.20;99.90
2571;DHT22;1295;51.130;6.732;2023-07-24T10:43:10;21.20;99.90
2571;DHT22;1295;51.130;6.732;2023-07-24T10:45:45;21.10;99.90
2571;DHT22;1295;51.130;6.732;2023-07-24T10:48:08;21.00;99.90
2571;DHT22;1295;51.130;6.732;2023-07-24T10:50:36;21.10;99.90
2571;DHT22;1295;51.130;6.732;2023-07-24T10:53:01;21.30;99.90
2571;DHT22;1295;51.130;6.732;2023-07-24T10:55:27;21.50;99.90
2571;DHT22;1295;51.130;6.732;2023-07-24T10:57:53;21.70;99.90
2571;DHT22;1295;51.130;6.732;2023-07-24T11:00:18;21.50;99.90
2571;DHT22;1295;51.130;6.732;2023-07-24T11:02:44;21.50;99.90
2571;DHT22;1295;51.130;6.732;2023-07-24T11:05:10;21.60;99.90
2571;DHT22;1295;51.130;6.732;2023-07-24T11:07:35;21.50;99.90
2571;DHT22;1295;51.130;6.732;2023-07-24T11:10:01;21.40;99.90
2571;DHT22;1295;51.130;6.732;2023-07-24T11:12:26;21.40;99.90
2571;DHT22;1295;51.130;6.732;2023-07-24T11:14:52;21.40;99.90
2571;DHT22;1295;51.130;6.732;2023-07-24T11:17:19;21.30;99.90
2571;DHT22;1295;51.130;6.732;2023-07-24T11:19:45;21.20;99.90
2571;DHT22;1295;51.130;6.732;2023-07-24T11:22:11;21.20;99.90
2571;DHT22;1295;51.130;6.732;2023-07-24T11:24:44;21.10;99.90
2571;DHT22;1295;51.130;6.732;2023-07-24T11:27:10;21.10;99.90
2571;DHT22;1295;51.130;6.732;2023-07-24T11:29:35;20.60;99.90
2571;DHT22;1295;51.130;6.732;2023-07-24T11:32:02;20.60;99.90
2571;DHT22;1295;51.130;6.732;2023-07-24T11:34:26;20.70;99.90
2571;DHT22;1295;51.130;6.732;2023-07-24T11:36:52;20.60;99.90
2571;DHT22;1295;51.130;6.732;2023-07-24T11:39:22;20.80;99.90
2571;DHT22;1295;51.130;6.732;2023-07-24T11:41:48;20.80;99.90
2571;DHT22;1295;51.130;6.732;2023-07-24T11:44:13;20.70;99.90
2571;DHT22;1295;51.130;6.732;2023-07-24T11:46:39;20.70;99.90
2571;DHT22;1295;51.130;6.732;2023-07-24T11:49:05;20.40;99.90
2571;DHT22;1295;51.130;6.732;2023-07-24T11:51:30;20.00;99.90
2571;DHT22;1295;51.130;6.732;2023-07-24T11:54:06;20.20;99.90
2571;DHT22;1295;51.130;6.732;2023-07-24T11:56:31;19.60;99.90
2571;DHT22;1295;51.130;6.732;2023-07-24T11:58:57;20.30;99.90
2571;DHT22;1295;51.130;6.732;2023-07-24T12:01:23;20.60;99.90
2571;DHT22;1295;51.130;6.732;2023-07-24T12:03:49;20.60;99.90
2571;DHT22;1295;51.130;6.732;2023-07-24T12:06:16;20.60;99.90
2571;DHT22;1295;51.130;6.732;2023-07-24T12:08:41;20.60;99.90
2571;DHT22;1295;51.130;6.732;2023-07-24T12:11:15;20.70;99.90
2571;DHT22;1295;51.130;6.732;2023-07-24T12:13:32;20.70;99.90
2571;DHT22;1295;51.130;6.732;2023-07-24T12:15:58;20.80;99.90
2571;DHT22;1295;51.130;6.732;2023-07-24T12:18:23;20.80;99.90
2571;DHT22;1295;51.130;6.732;2023-07-24T12:20:49;20.60;99.90
2571;DHT22;1295;51.130;6.732;2023-07-24T12:23:15;20.40;99.90
2571;DHT22;1295;51.130;6.732;2023-07-24T12:25:41;20.60;99.90
2571;DHT22;1295;51.130;6.732;2023-07-24T12:28:07;20.60;99.90
2571;DHT22;1295;51.130;6.732;2023-07-24T12:30:32;20.40;99.90
2571;DHT22;1295;51.130;6.732;2023-07-24T12:32:58;20.70;99.90
2571;DHT22;1295;51.130;6.732;2023-07-24T12:35:23;20.60;99.90
2571;DHT22;1295;51.130;6.732;2023-07-24T12:37:49;20.80;99.90
2571;DHT22;1295;51.130;6.732;2023-07-24T12:40:15;20.90;99.90
2571;DHT22;1295;51.130;6.732;2023-07-24T12:42:40;20.80;99.90
2571;DHT22;1295;51.130;6.732;2023-07-24T12:45:07;20.90;99.90
2571;DHT22;1295;51.130;6.732;2023-07-24T12:47:32;20.90;99.90
2571;DHT22;1295;51.130;6.732;2023-07-24T12:49:58;21.10;99.90
2571;DHT22;1295;51.130;6.732;2023-07-24T12:52:24;21.20;99.90
2571;DHT22;1295;51.130;6.732;2023-07-24T12:54:49;21.20;99.90
2571;DHT22;1295;51.130;6.732;2023-07-24T12:57:15;21.50;99.90
2571;DHT22;1295;51.130;6.732;2023-07-24T12:59:40;21.50;99.90
2571;DHT22;1295;51.130;6.732;2023-07-24T13:02:06;21.50;99.90
2571;DHT22;1295;51.130;6.732;2023-07-24T13:04:32;21.40;99.90
2571;DHT22;1295;51.130;6.732;2023-07-24T13:06:57;21.40;99.90
2571;DHT22;1295;51.130;6.732;2023-07-24T13:09:23;21.60;99.90
2571;DHT22;1295;51.130;6.732;2023-07-24T13:11:49;21.70;99.90
2571;DHT22;1295;51.130;6.732;2023-07-24T13:14:14;21.90;99.90
2571;DHT22;1295;51.130;6.732;2023-07-24T13:16:40;21.80;99.90
2571;DHT22;1295;51.130;6.732;2023-07-24T13:19:05;21.80;99.90
2571;DHT22;1295;51.130;6.732;2023-07-24T13:21:31;21.60;99.90
2571;DHT22;1295;51.130;6.732;2023-07-24T13:23:57;21.60;99.90
2571;DHT22;1295;51.130;6.732;2023-07-24T13:26:22;21.50;99.90
2571;DHT22;1295;51.130;6.732;2023-07-24T13:28:48;21.50;99.90
2571;DHT22;1295;51.130;6.732;2023-07-24T13:31:15;21.40;99.90
2571;DHT22;1295;51.130;6.732;2023-07-24T13:33:40;21.40;99.90
2571;DHT22;1295;51.130;6.732;2023-07-24T13:36:06;21.40;99.90
2571;DHT22;1295;51.130;6.732;2023-07-24T13:38:32;21.40;99.90
2571;DHT22;1295;51.130;6.732;2023-07-24T13:40:58;21.40;99.90
2571;DHT22;1295;51.130;6.732;2023-07-24T13:43:23;21.50;99.90
2571;DHT22;1295;51.130;6.732;2023-07-24T13:45:49;21.60;99.90
2571;DHT22;1295;51.130;6.732;2023-07-24T13:48:15;21.50;99.90
2571;DHT22;1295;51.130;6.732;2023-07-24T13:50:41;21.50;99.90
2571;DHT22;1295;51.130;6.732;2023-07-24T13:53:07;21.40;99.90
2571;DHT22;1295;51.130;6.732;2023-07-24T13:55:32;21.40;99.90
2571;DHT22;1295;51.130;6.732;2023-07-24T13:57:58;21.50;99.90
2571;DHT22;1295;51.130;6.732;2023-07-24T14:00:24;21.60;99.90
2571;DHT22;1295;51.130;6.732;2023-07-24T14:02:49;21.50;99.90
2571;DHT22;1295;51.130;6.732;2023-07-24T14:05:15;21.60;99.90
2571;DHT22;1295;51.130;6.732;2023-07-24T14:07:41;21.60;99.90
2571;DHT22;1295;51.130;6.732;2023-07-24T14:10:08;21.60;99.90
2571;DHT22;1295;51.130;6.732;2023-07-24T14:12:33;21.60;99.90
2571;DHT22;1295;51.130;6.732;2023-07-24T14:14:59;21.50;99.90
2571;DHT22;1295;51.130;6.732;2023-07-24T14:17:24;21.60;99.90
2571;DHT22;1295;51.130;6.732;2023-07-24T14:19:50;21.60;99.90
2571;DHT22;1295;51.130;6.732;2023-07-24T14:22:15;21.70;99.90
2571;DHT22;1295;51.130;6.732;2023-07-24T14:24:41;21.70;99.90
2571;DHT22;1295;51.130;6.732;2023-07-24T14:27:07;21.70;99.90
2571;DHT22;1295;51.130;6.732;2023-07-24T14:29:32;21.80;99.90
2571;DHT22;1295;51.130;6.732;2023-07-24T14:31:58;21.70;99.90
2571;DHT22;1295;51.130;6.732;2023-07-24T14:34:24;21.60;99.90
2571;DHT22;1295;51.130;6.732;2023-07-24T14:36:49;21.50;99.90
2571;DHT22;1295;51.130;6.732;2023-07-24T14:39:16;21.40;99.90
2571;DHT22;1295;51.130;6.732;2023-07-24T14:41:41;21.40;99.90
2571;DHT22;1295;51.130;6.732;2023-07-24T14:44:07;21.50;99.90
2571;DHT22;1295;51.130;6.732;2023-07-24T14:46:32;21.40;99.90
2571;DHT22;1295;51.130;6.732;2023-07-24T14:48:58;21.20;99.90
2571;DHT22;1295;51.130;6.732;2023-07-24T14:51:24;21.30;99.90
2571;DHT22;1295;51.130;6.732;2023-07-24T14:53:49;20.80;99.90
2571;DHT22;1295;51.130;6.732;2023-07-24T14:56:15;20.70;99.90
2571;DHT22;1295;51.130;6.732;2023-07-24T14:58:41;20.60;99.90
2571;DHT22;1295;51.130;6.732;2023-07-24T15:01:07;20.90;99.90
2571;DHT22;1295;51.130;6.732;2023-07-24T15:03:33;20.90;99.90
2571;DHT22;1295;51.130;6.732;2023-07-24T15:05:59;21.20;99.90
2571;DHT22;1295;51.130;6.732;2023-07-24T15:08:25;21.20;99.90
2571;DHT22;1295;51.130;6.732;2023-07-24T15:10:50;21.20;99.90
2571;DHT22;1295;51.130;6.732;2023-07-24T15:13:16;21.00;99.90
2571;DHT22;1295;51.130;6.732;2023-07-24T15:15:42;21.00;99.90
2571;DHT22;1295;51.130;6.732;2023-07-24T15:18:07;21.10;99.90
2571;DHT22;1295;51.130;6.732;2023-07-24T15:20:33;21.10;99.90
2571;DHT22;1295;51.130;6.732;2023-07-24T15:22:58;21.20;99.90
2571;DHT22;1295;51.130;6.732;2023-07-24T15:25:25;21.10;99.90
2571;DHT22;1295;51.130;6.732;2023-07-24T15:27:50;21.00;99.90
2571;DHT22;1295;51.130;6.732;2023-07-24T15:30:16;21.20;99.90
2571;DHT22;1295;51.130;6.732;2023-07-24T15:32:42;21.10;99.90
2571;DHT22;1295;51.130;6.732;2023-07-24T15:35:08;21.10;99.90
2571;DHT22;1295;51.130;6.732;2023-07-24T15:37:34;21.10;99.90
2571;DHT22;1295;51.130;6.732;2023-07-24T15:40:00;21.20;99.90
2571;DHT22;1295;51.130;6.732;2023-07-24T15:42:26;21.10;99.90
2571;DHT22;1295;51.130;6.732;2023-07-24T15:44:51;21.10;99.90
2571;DHT22;1295;51.130;6.732;2023-07-24T15:47:17;21.20;99.90
2571;DHT22;1295;51.130;6.732;2023-07-24T15:49:42;21.30;99.90
2571;DHT22;1295;51.130;6.732;2023-07-24T15:52:08;21.30;99.90
2571;DHT22;1295;51.130;6.732;2023-07-24T15:54:34;21.40;99.90